Time;durP1;ratioP1;P1;durP2;ratioP2;P2;SDS_P1;SDS_P2;PMS_P1;PMS_P2;Temp;Humidity;BMP_temperature;BMP_pressure;BME280_temperature;BME280_humidity;BME280_pressure;Samples;Min_cycle;Max_cycle;Signal;HPM_P1;HPM_P2
2024/03/06 00:00:00;;;;;;;23.67;18.05;;;10.40;99.90;;;;;;4900380;29;20594;-77
2024/03/06 00:02:26;;;;;;;24.67;18.13;;;10.40;99.90;;;;;;4917432;29;20313;-78
2024/03/06 00:04:53;;;;;;;24.53;18.73;;;10.40;99.90;;;;;;4917231;29;20209;-78
2024/03/06 00:07:18;;;;;;;24.20;18.92;;;10.40;99.90;;;;;;4917217;29;20178;-78
2024/03/06 00:09:44;;;;;;;23.27;17.07;;;10.40;99.90;;;;;;4915550;29;20186;-77
2024/03/06 00:12:10;;;;;;;22.53;18.80;;;10.30;99.90;;;;;;4915819;29;20181;-77
2024/03/06 00:14:36;;;;;;;23.63;18.27;;;10.30;99.90;;;;;;4915811;29;20625;-78
2024/03/06 00:17:04;;;;;;;24.60;18.00;;;10.30;99.90;;;;;;4917874;29;20640;-77
2024/03/06 00:19:30;;;;;;;21.70;17.35;;;10.30;99.90;;;;;;4914881;29;20740;-77
2024/03/06 00:21:56;;;;;;;22.23;19.13;;;10.20;99.90;;;;;;4916854;29;20260;-77
2024/03/06 00:24:22;;;;;;;24.97;19.07;;;10.20;99.90;;;;;;4915057;29;20692;-77
2024/03/06 00:26:48;;;;;;;22.17;18.40;;;10.10;99.90;;;;;;4916704;29;20186;-77
2024/03/06 00:29:14;;;;;;;22.50;19.00;;;10.10;99.90;;;;;;4915358;29;20188;-78
2024/03/06 00:31:44;;;;;;;22.40;17.35;;;10.10;99.90;;;;;;4915636;29;20617;-77
2024/03/06 00:34:13;;;;;;;28.83;20.10;;;10.10;99.90;;;;;;4908696;29;20265;-77
2024/03/06 00:36:43;;;;;;;21.90;18.02;;;10.10;99.90;;;;;;4950332;29;20201;-77
2024/03/06 00:39:09;;;;;;;23.30;18.80;;;10.10;99.90;;;;;;4919812;29;20624;-78
2024/03/06 00:41:35;;;;;;;23.20;18.85;;;10.20;99.90;;;;;;4916560;29;20174;-76
2024/03/06 00:44:02;;;;;;;20.90;17.05;;;10.20;99.90;;;;;;4931278;29;20566;-78
2024/03/06 00:46:27;;;;;;;22.77;18.30;;;10.30;99.90;;;;;;4925596;29;20184;-79
2024/03/06 00:48:53;;;;;;;24.20;18.03;;;10.30;99.90;;;;;;4914893;29;21204;-78
2024/03/06 00:51:20;;;;;;;22.50;17.53;;;10.30;99.90;;;;;;4899599;29;20586;-78
2024/03/06 00:53:45;;;;;;;20.38;17.23;;;10.30;99.90;;;;;;4923883;29;20248;-78
2024/03/06 00:56:11;;;;;;;21.37;17.57;;;10.30;99.90;;;;;;4950237;29;20587;-78
2024/03/06 00:58:37;;;;;;;22.70;17.80;;;10.30;99.90;;;;;;4915952;29;20739;-79
2024/03/06 01:01:03;;;;;;;23.10;18.13;;;10.30;99.90;;;;;;4915069;29;20229;-78
2024/03/06 01:03:29;;;;;;;24.00;17.67;;;10.30;99.90;;;;;;4915076;29;20621;-78
2024/03/06 01:05:55;;;;;;;21.87;16.07;;;10.30;99.90;;;;;;4916247;29;20585;-79
2024/03/06 01:08:24;;;;;;;21.20;17.47;;;10.30;99.90;;;;;;4898865;29;21177;-79
2024/03/06 01:10:50;;;;;;;19.63;16.80;;;10.30;99.90;;;;;;4915055;29;20660;-78
2024/03/06 01:13:16;;;;;;;24.55;17.73;;;10.30;99.90;;;;;;4916392;29;20205;-78
2024/03/06 01:15:42;;;;;;;20.80;17.97;;;10.30;99.90;;;;;;4899736;29;20177;-79
2024/03/06 01:18:08;;;;;;;21.80;17.20;;;10.20;99.90;;;;;;4915056;29;20542;-79
2024/03/06 01:20:34;;;;;;;20.95;17.17;;;10.10;99.90;;;;;;4927287;29;20178;-77
2024/03/06 01:23:00;;;;;;;22.20;17.87;;;10.10;99.90;;;;;;4935260;29;20271;-77
2024/03/06 01:25:26;;;;;;;21.83;16.30;;;10.00;99.90;;;;;;4944803;29;20644;-77
2024/03/06 01:27:52;;;;;;;23.73;18.27;;;9.90;99.90;;;;;;4928235;29;20194;-77
2024/03/06 01:30:17;;;;;;;23.57;18.97;;;9.80;99.90;;;;;;4923984;29;20244;-78
2024/03/06 01:32:43;;;;;;;23.30;19.03;;;9.80;99.90;;;;;;4915832;29;20296;-77
2024/03/06 01:35:09;;;;;;;20.83;17.53;;;9.70;99.90;;;;;;4915902;29;20190;-77
2024/03/06 01:37:35;;;;;;;24.13;16.90;;;9.60;99.90;;;;;;4914801;29;20194;-77
2024/03/06 01:40:03;;;;;;;19.43;16.23;;;9.50;99.90;;;;;;4917437;29;20570;-78
2024/03/06 01:42:29;;;;;;;20.65;17.10;;;9.40;99.90;;;;;;4916160;29;20213;-77
2024/03/06 01:44:55;;;;;;;22.10;15.80;;;9.40;99.90;;;;;;4915852;29;20248;-77
2024/03/06 01:47:21;;;;;;;22.90;17.87;;;9.30;99.90;;;;;;4914619;29;20576;-77
2024/03/06 01:49:47;;;;;;;21.20;16.40;;;9.20;99.90;;;;;;4915255;29;20189;-76
2024/03/06 01:52:15;;;;;;;23.52;17.55;;;9.20;99.90;;;;;;4914196;29;20273;-76
2024/03/06 01:54:41;;;;;;;23.05;16.63;;;9.10;99.90;;;;;;4915376;29;20435;-77
2024/03/06 01:57:09;;;;;;;21.40;17.33;;;9.10;99.90;;;;;;4915481;29;20193;-77
2024/03/06 01:59:35;;;;;;;21.83;17.80;;;9.00;99.90;;;;;;4914734;29;20213;-77
2024/03/06 02:02:02;;;;;;;19.37;16.70;;;8.90;99.90;;;;;;4915028;29;20192;-77
2024/03/06 02:04:30;;;;;;;19.33;16.17;;;8.90;99.90;;;;;;4897993;29;20969;-77
2024/03/06 02:06:56;;;;;;;19.10;15.57;;;8.90;99.90;;;;;;4915325;29;20193;-77
2024/03/06 02:09:23;;;;;;;23.83;17.48;;;8.80;99.90;;;;;;4917812;29;20189;-77
2024/03/06 02:11:50;;;;;;;22.92;16.65;;;8.80;99.90;;;;;;4915246;29;20185;-77
2024/03/06 02:14:16;;;;;;;21.65;17.73;;;8.80;99.90;;;;;;4898053;29;20585;-77
2024/03/06 02:16:42;;;;;;;19.80;16.63;;;8.70;99.90;;;;;;4914959;29;20182;-76
2024/03/06 02:19:08;;;;;;;22.40;16.80;;;8.70;99.90;;;;;;4913337;29;20772;-77
2024/03/06 02:21:34;;;;;;;22.90;17.38;;;8.70;99.90;;;;;;4913535;29;20225;-76
2024/03/06 02:24:00;;;;;;;25.80;17.58;;;8.60;99.90;;;;;;4913657;29;20212;-76
2024/03/06 02:26:26;;;;;;;23.57;18.53;;;8.70;99.90;;;;;;4914825;29;20265;-77
2024/03/06 02:28:54;;;;;;;21.83;16.10;;;8.60;99.90;;;;;;4914620;29;20979;-77
2024/03/06 02:31:21;;;;;;;20.08;14.90;;;8.70;99.90;;;;;;4914715;29;20586;-76
2024/03/06 02:33:48;;;;;;;23.10;16.27;;;8.70;99.90;;;;;;4913524;29;20228;-77
2024/03/06 02:36:14;;;;;;;22.73;17.23;;;8.80;99.90;;;;;;4914813;29;20181;-77
2024/03/06 02:38:40;;;;;;;19.65;15.25;;;8.80;99.90;;;;;;4913042;29;20216;-77
2024/03/06 02:41:06;;;;;;;18.88;16.83;;;8.90;99.90;;;;;;4914619;29;20182;-78
2024/03/06 02:43:33;;;;;;;17.80;14.57;;;8.90;99.90;;;;;;4914464;29;20234;-77
2024/03/06 02:45:59;;;;;;;20.58;15.77;;;9.00;99.90;;;;;;4917460;29;20231;-77
2024/03/06 02:48:24;;;;;;;19.38;15.30;;;9.00;99.90;;;;;;4896995;29;20185;-78
2024/03/06 02:50:50;;;;;;;21.70;16.80;;;9.10;99.90;;;;;;4901561;29;20176;-78
2024/03/06 02:53:16;;;;;;;19.80;15.80;;;9.10;99.90;;;;;;4924310;29;20713;-77
2024/03/06 02:55:41;;;;;;;20.17;15.27;;;9.20;99.90;;;;;;4930234;29;20239;-78
2024/03/06 02:58:07;;;;;;;19.60;14.37;;;9.20;99.90;;;;;;4912799;29;20567;-78
2024/03/06 03:00:33;;;;;;;18.23;14.47;;;9.30;99.90;;;;;;4913292;29;20184;-77
2024/03/06 03:02:59;;;;;;;19.13;15.87;;;9.30;99.90;;;;;;4918884;29;20236;-77
2024/03/06 03:05:24;;;;;;;19.63;14.57;;;9.40;99.90;;;;;;4933156;29;20722;-79
2024/03/06 03:07:50;;;;;;;19.17;14.50;;;9.40;99.90;;;;;;4915153;29;20335;-78
2024/03/06 03:10:16;;;;;;;20.38;16.63;;;9.40;99.90;;;;;;4914924;29;20182;-77
2024/03/06 03:12:42;;;;;;;19.77;14.90;;;9.40;99.90;;;;;;4914729;29;20200;-77
2024/03/06 03:15:09;;;;;;;17.67;14.93;;;9.40;99.90;;;;;;4915043;29;20545;-78
2024/03/06 03:17:35;;;;;;;19.45;13.98;;;9.40;99.90;;;;;;4913224;29;20596;-79
2024/03/06 03:20:10;;;;;;;16.30;13.02;;;9.40;99.90;;;;;;4914701;29;20178;-78
2024/03/06 03:22:42;;;;;;;18.55;14.20;;;9.40;99.90;;;;;;4916833;29;20767;-78
2024/03/06 03:25:10;;;;;;;15.60;12.32;;;9.30;99.90;;;;;;4914680;29;20232;-78
2024/03/06 03:27:37;;;;;;;16.30;13.25;;;9.30;99.90;;;;;;4917682;29;20188;-77
2024/03/06 03:30:03;;;;;;;17.60;13.07;;;9.20;99.90;;;;;;4892874;29;20267;-77
2024/03/06 03:32:30;;;;;;;16.30;13.30;;;9.20;99.90;;;;;;4924689;29;20181;-78
2024/03/06 03:34:56;;;;;;;15.80;12.70;;;9.10;99.90;;;;;;4920739;29;20288;-78
2024/03/06 03:37:21;;;;;;;13.27;11.83;;;9.00;99.90;;;;;;4921764;29;20181;-77
2024/03/06 03:39:47;;;;;;;15.47;12.10;;;9.00;99.90;;;;;;4924562;29;20213;-78
2024/03/06 03:42:13;;;;;;;17.60;13.50;;;8.90;99.90;;;;;;4915913;29;20268;-77
2024/03/06 03:44:39;;;;;;;15.73;10.90;;;8.80;99.90;;;;;;4921207;29;20201;-77
2024/03/06 03:47:05;;;;;;;16.27;11.80;;;8.70;99.90;;;;;;4914810;29;20190;-77
2024/03/06 03:49:31;;;;;;;14.65;11.77;;;8.60;99.90;;;;;;4914225;29;20216;-78
2024/03/06 03:51:57;;;;;;;16.37;12.77;;;8.60;99.90;;;;;;4914775;29;20666;-78
2024/03/06 03:54:23;;;;;;;14.33;10.73;;;8.50;99.90;;;;;;4914764;29;20205;-77
2024/03/06 03:56:48;;;;;;;14.67;11.67;;;8.50;99.90;;;;;;4913335;29;20616;-78
2024/03/06 03:59:14;;;;;;;17.53;12.10;;;8.50;99.90;;;;;;4900406;29;20240;-77
2024/03/06 04:01:40;;;;;;;14.87;12.13;;;8.40;99.90;;;;;;4916738;29;20182;-77
2024/03/06 04:04:07;;;;;;;14.57;12.20;;;8.40;99.90;;;;;;4917705;29;20613;-77
2024/03/06 04:06:33;;;;;;;12.80;9.73;;;8.30;99.90;;;;;;4916493;29;20209;-78
2024/03/06 04:09:00;;;;;;;12.20;8.38;;;8.30;99.90;;;;;;4931990;29;20225;-78
2024/03/06 04:11:26;;;;;;;9.35;7.63;;;8.30;99.90;;;;;;4917217;29;20186;-78
2024/03/06 04:13:52;;;;;;;10.63;7.67;;;8.20;99.90;;;;;;4916225;29;20314;-77
2024/03/06 04:16:18;;;;;;;9.07;6.60;;;8.20;99.90;;;;;;4917563;29;20276;-78
2024/03/06 04:18:45;;;;;;;9.15;6.05;;;8.10;99.90;;;;;;4916134;29;20240;-77
2024/03/06 04:21:10;;;;;;;6.45;5.35;;;8.10;99.90;;;;;;4917215;29;20206;-78
2024/03/06 04:23:37;;;;;;;6.70;4.67;;;8.00;99.90;;;;;;4917348;29;20236;-78
2024/03/06 04:26:03;;;;;;;7.68;4.47;;;8.00;99.90;;;;;;4917444;29;20193;-77
2024/03/06 04:28:29;;;;;;;5.85;4.93;;;8.00;99.90;;;;;;4915474;29;20237;-78
2024/03/06 04:30:55;;;;;;;5.85;4.78;;;7.90;99.90;;;;;;4916096;29;20178;-77
2024/03/06 04:33:22;;;;;;;5.65;4.18;;;8.00;99.90;;;;;;4916041;29;20210;-78
2024/03/06 04:35:47;;;;;;;6.53;5.15;;;8.00;99.90;;;;;;4911663;29;20174;-77
2024/03/06 04:38:13;;;;;;;7.50;5.50;;;8.00;99.90;;;;;;4919199;29;20198;-78
2024/03/06 04:40:40;;;;;;;6.93;4.90;;;8.00;99.90;;;;;;4916987;29;20185;-77
2024/03/06 04:43:07;;;;;;;7.00;4.63;;;8.00;99.90;;;;;;4917128;29;20629;-79
2024/03/06 04:45:35;;;;;;;5.20;4.68;;;8.10;99.90;;;;;;4917273;29;20664;-78
2024/03/06 04:48:01;;;;;;;6.47;4.63;;;8.10;99.90;;;;;;4922043;29;20208;-77
2024/03/06 04:50:27;;;;;;;4.80;4.30;;;8.10;99.90;;;;;;4884896;29;20586;-78
2024/03/06 04:52:53;;;;;;;7.70;5.50;;;8.20;99.90;;;;;;4917105;29;20633;-77
2024/03/06 04:55:22;;;;;;;5.05;4.25;;;8.20;99.90;;;;;;4917320;29;20277;-78
2024/03/06 04:57:48;;;;;;;7.13;4.10;;;8.20;99.90;;;;;;4916959;29;20667;-77
2024/03/06 05:00:14;;;;;;;4.43;3.05;;;8.20;99.90;;;;;;4917200;29;20177;-77
2024/03/06 05:02:41;;;;;;;6.00;3.58;;;8.30;99.90;;;;;;4916149;29;20198;-78
2024/03/06 05:05:08;;;;;;;4.93;3.75;;;8.30;99.90;;;;;;4938389;29;20185;-77
2024/03/06 05:07:34;;;;;;;3.63;3.28;;;8.30;99.90;;;;;;4916522;29;20640;-77
2024/03/06 05:10:00;;;;;;;4.20;3.50;;;8.30;99.90;;;;;;4921888;29;20186;-77
2024/03/06 05:12:26;;;;;;;4.90;2.85;;;8.30;99.90;;;;;;4933536;29;20605;-77
2024/03/06 05:14:53;;;;;;;4.82;3.08;;;8.40;99.90;;;;;;4917382;29;20273;-77
2024/03/06 05:17:19;;;;;;;3.95;2.80;;;8.40;99.90;;;;;;4917603;29;20186;-77
2024/03/06 05:19:49;;;;;;;5.20;2.90;;;8.30;99.90;;;;;;4916056;29;20264;-77
2024/03/06 05:22:15;;;;;;;6.28;3.70;;;8.30;99.90;;;;;;4917581;29;20261;-77
2024/03/06 05:24:42;;;;;;;3.85;3.15;;;8.40;99.90;;;;;;4920073;29;20213;-77
2024/03/06 05:27:09;;;;;;;4.80;3.58;;;8.40;99.90;;;;;;4920637;29;20193;-77
2024/03/06 05:29:36;;;;;;;5.15;3.30;;;8.40;99.90;;;;;;4916636;29;20213;-77
2024/03/06 05:32:03;;;;;;;5.10;3.38;;;8.40;99.90;;;;;;4915991;29;20189;-76
2024/03/06 05:34:29;;;;;;;5.18;3.38;;;8.40;99.90;;;;;;4914429;29;20292;-77
2024/03/06 05:36:55;;;;;;;4.78;3.35;;;8.40;99.90;;;;;;4896685;29;20174;-77
2024/03/06 05:39:21;;;;;;;4.43;3.10;;;8.50;99.90;;;;;;4911958;29;20217;-77
2024/03/06 05:41:47;;;;;;;3.47;3.17;;;8.40;99.90;;;;;;4913766;29;20209;-77
2024/03/06 05:44:13;;;;;;;7.10;3.47;;;8.50;99.90;;;;;;4912789;29;20197;-77
2024/03/06 05:46:38;;;;;;;4.03;2.30;;;8.40;99.90;;;;;;4912804;29;20246;-77
2024/03/06 05:49:04;;;;;;;3.73;2.30;;;8.40;99.90;;;;;;4897893;29;20182;-77
2024/03/06 05:51:30;;;;;;;3.80;2.50;;;8.30;99.90;;;;;;4930004;29;20198;-77
2024/03/06 05:53:56;;;;;;;6.23;3.20;;;8.30;99.90;;;;;;4920942;29;20651;-78
2024/03/06 05:56:22;;;;;;;3.67;2.80;;;8.30;99.90;;;;;;4918100;29;20586;-78
2024/03/06 05:58:49;;;;;;;5.23;2.90;;;8.10;99.90;;;;;;4916954;29;20683;-77
2024/03/06 06:01:21;;;;;;;2.95;2.55;;;8.10;99.90;;;;;;4915379;29;20586;-77
2024/03/06 06:03:49;;;;;;;3.08;2.05;;;8.00;99.90;;;;;;4913831;29;20962;-77
2024/03/06 06:06:16;;;;;;;3.30;2.03;;;7.90;99.90;;;;;;4915198;29;20260;-77
2024/03/06 06:08:43;;;;;;;3.28;2.97;;;7.90;99.90;;;;;;4928938;29;20181;-77
2024/03/06 06:11:10;;;;;;;3.42;2.60;;;7.90;99.90;;;;;;4914587;29;20265;-78
2024/03/06 06:13:36;;;;;;;2.85;2.30;;;7.90;99.90;;;;;;4914886;29;20206;-77
2024/03/06 06:16:04;;;;;;;3.27;2.30;;;7.90;99.90;;;;;;4914418;29;20237;-77
2024/03/06 06:18:31;;;;;;;3.22;2.10;;;7.90;99.90;;;;;;4913070;29;20217;-77
2024/03/06 06:20:58;;;;;;;2.72;1.90;;;7.90;99.90;;;;;;4897802;29;20186;-78
2024/03/06 06:23:24;;;;;;;4.13;1.98;;;7.90;99.90;;;;;;4914240;29;20677;-77
2024/03/06 06:25:50;;;;;;;4.70;2.27;;;7.90;99.90;;;;;;4898009;29;20265;-77
2024/03/06 06:28:16;;;;;;;5.00;2.25;;;7.80;99.90;;;;;;4883917;29;20601;-77
2024/03/06 06:30:41;;;;;;;4.00;2.23;;;7.80;99.90;;;;;;4929237;29;20190;-78
2024/03/06 06:33:08;;;;;;;3.43;2.53;;;7.80;99.90;;;;;;4910451;29;20202;-78
2024/03/06 06:35:34;;;;;;;4.47;2.75;;;7.70;99.90;;;;;;4911935;29;20185;-77
2024/03/06 06:38:04;;;;;;;3.75;2.88;;;7.70;99.90;;;;;;4900573;29;20181;-77
2024/03/06 06:40:30;;;;;;;3.33;2.20;;;7.70;99.90;;;;;;4916115;29;20186;-77
2024/03/06 06:42:56;;;;;;;3.33;2.27;;;7.70;99.90;;;;;;4912879;29;20197;-78
2024/03/06 06:45:22;;;;;;;4.60;2.20;;;7.70;99.90;;;;;;4913920;29;20268;-80
2024/03/06 06:47:49;;;;;;;4.13;2.50;;;7.70;99.90;;;;;;4915964;29;20200;-80
2024/03/06 06:50:15;;;;;;;3.05;2.40;;;7.70;99.90;;;;;;4918211;29;20617;-80
2024/03/06 06:52:42;;;;;;;3.67;2.75;;;7.70;99.90;;;;;;4918470;29;20189;-80
2024/03/06 06:55:11;;;;;;;4.10;3.25;;;7.80;99.90;;;;;;4919119;29;20217;-79
2024/03/06 06:57:37;;;;;;;5.53;3.97;;;7.80;99.90;;;;;;4894041;29;20213;-79
2024/03/06 07:00:10;;;;;;;2.85;2.40;;;7.80;99.90;;;;;;4914351;29;20712;-79
2024/03/06 07:02:42;;;;;;;5.97;3.00;;;7.90;99.90;;;;;;4897962;29;20181;-78
2024/03/06 07:05:10;;;;;;;5.47;3.05;;;7.90;99.90;;;;;;4914452;29;20181;-79
2024/03/06 07:07:36;;;;;;;4.53;3.92;;;7.90;99.90;;;;;;4912388;29;20594;-79
2024/03/06 07:10:03;;;;;;;4.05;3.00;;;7.90;99.90;;;;;;4897580;29;20328;-79
2024/03/06 07:12:29;;;;;;;4.30;3.42;;;7.90;99.90;;;;;;4914418;29;20185;-78
2024/03/06 07:14:55;;;;;;;4.77;2.80;;;8.00;99.90;;;;;;4914137;29;20549;-78
2024/03/06 07:17:20;;;;;;;4.57;3.23;;;8.10;99.90;;;;;;4912713;29;20608;-80
2024/03/06 07:19:46;;;;;;;6.30;3.23;;;8.10;99.90;;;;;;4912040;29;20216;-79
2024/03/06 07:22:12;;;;;;;5.17;2.80;;;8.20;99.90;;;;;;4914015;29;20359;-80
2024/03/06 07:24:38;;;;;;;4.00;3.60;;;8.30;99.90;;;;;;4913646;29;20618;-80
2024/03/06 07:27:04;;;;;;;3.95;2.67;;;8.40;99.90;;;;;;4912985;29;20648;-80
2024/03/06 07:29:30;;;;;;;3.70;3.08;;;8.50;99.90;;;;;;4912689;29;20191;-79
2024/03/06 07:31:56;;;;;;;4.43;3.10;;;8.60;99.90;;;;;;4912648;29;20721;-80
2024/03/06 07:34:22;;;;;;;3.73;2.70;;;8.70;99.90;;;;;;4914189;29;20620;-80
2024/03/06 07:36:48;;;;;;;3.43;2.80;;;8.80;99.90;;;;;;4920579;29;20648;-80
2024/03/06 07:39:18;;;;;;;5.25;2.35;;;9.00;99.90;;;;;;4920447;29;20645;-81
2024/03/06 07:41:44;;;;;;;4.60;3.20;;;9.10;99.90;;;;;;4941465;29;20182;-80
2024/03/06 07:44:10;;;;;;;3.97;2.50;;;9.30;99.90;;;;;;4930595;29;20205;-80
2024/03/06 07:46:36;;;;;;;3.57;2.57;;;9.30;99.90;;;;;;4922135;29;20278;-81
2024/03/06 07:49:04;;;;;;;3.08;2.05;;;9.50;99.90;;;;;;4932481;29;20230;-80
2024/03/06 07:51:33;;;;;;;2.97;2.17;;;9.60;99.90;;;;;;4934090;29;20249;-79
2024/03/06 07:54:00;;;;;;;5.32;2.80;;;9.70;99.90;;;;;;4930826;29;20302;-80
2024/03/06 07:56:28;;;;;;;3.30;2.75;;;9.90;99.90;;;;;;4925086;29;20189;-80
2024/03/06 07:59:01;;;;;;;3.00;2.47;;;10.00;99.90;;;;;;4923861;29;20200;-81
2024/03/06 08:01:28;;;;;;;4.55;2.70;;;10.20;99.90;;;;;;4944977;29;20272;-81
2024/03/06 08:03:56;;;;;;;3.65;2.95;;;10.40;99.90;;;;;;4939630;29;20197;-81
2024/03/06 08:06:22;;;;;;;5.45;2.70;;;10.60;99.90;;;;;;4938701;29;20169;-81
2024/03/06 08:09:01;;;;;;;3.73;2.67;;;10.70;99.90;;;;;;4930981;29;20839;-82
2024/03/06 08:11:28;;;;;;;3.70;2.30;;;11.00;99.90;;;;;;4937007;29;20593;-82
2024/03/06 08:13:58;;;;;;;3.50;2.83;;;11.50;99.90;;;;;;4934675;29;20205;-80
2024/03/06 08:16:24;;;;;;;4.80;3.23;;;12.00;99.90;;;;;;4919358;29;20182;-79
2024/03/06 08:18:50;;;;;;;3.20;2.60;;;12.80;99.90;;;;;;4920572;29;20643;-79
2024/03/06 08:21:16;;;;;;;3.37;2.50;;;13.40;99.90;;;;;;4917137;29;21135;-80
2024/03/06 08:23:43;;;;;;;4.27;2.60;;;13.80;99.90;;;;;;4926713;29;20672;-80
2024/03/06 08:26:08;;;;;;;7.33;3.03;;;14.20;99.90;;;;;;4925816;29;20632;-80
2024/03/06 08:28:34;;;;;;;4.67;2.63;;;14.80;99.90;;;;;;4933015;29;20628;-80
2024/03/06 08:31:00;;;;;;;5.97;2.70;;;15.40;99.90;;;;;;4918570;29;20189;-73
2024/03/06 08:33:26;;;;;;;2.80;2.13;;;16.00;99.90;;;;;;4883939;29;20221;-73
2024/03/06 08:35:52;;;;;;;4.57;2.80;;;16.60;99.90;;;;;;4931247;29;20747;-73
2024/03/06 08:38:18;;;;;;;4.17;2.80;;;17.00;99.90;;;;;;4916246;29;20213;-73
2024/03/06 08:40:45;;;;;;;4.53;3.23;;;17.50;99.90;;;;;;4899407;29;20201;-73
2024/03/06 08:43:12;;;;;;;4.00;2.50;;;17.90;99.90;;;;;;4916801;29;20202;-73
2024/03/06 08:45:38;;;;;;;9.73;2.50;;;18.40;99.90;;;;;;4915877;29;21000;-73
2024/03/06 08:48:05;;;;;;;4.33;2.50;;;19.00;99.90;;;;;;4930484;29;20589;-73
2024/03/06 08:50:31;;;;;;;3.83;2.77;;;19.60;99.90;;;;;;4899261;29;20608;-74
2024/03/06 08:52:57;;;;;;;4.93;3.37;;;20.30;99.90;;;;;;4930622;29;20649;-74
2024/03/06 08:55:23;;;;;;;3.87;2.67;;;20.90;99.90;;;;;;4916470;29;20598;-74
2024/03/06 08:57:50;;;;;;;4.97;2.53;;;21.50;99.90;;;;;;4915741;29;20188;-74
2024/03/06 09:00:17;;;;;;;3.50;2.57;;;22.20;99.90;;;;;;4916651;29;20614;-75
2024/03/06 09:02:43;;;;;;;3.87;2.97;;;22.80;99.90;;;;;;4914665;29;20594;-73
2024/03/06 09:05:12;;;;;;;5.17;3.47;;;23.50;99.90;;;;;;4914806;29;21100;-73
2024/03/06 09:07:41;;;;;;;4.37;3.00;;;23.80;99.90;;;;;;4930379;29;20178;-73
2024/03/06 09:10:08;;;;;;;4.77;3.10;;;24.00;99.90;;;;;;4916041;29;20582;-73
2024/03/06 09:12:34;;;;;;;7.20;3.53;;;24.20;99.90;;;;;;4922767;29;20585;-72
2024/03/06 09:15:01;;;;;;;4.73;3.10;;;24.40;99.90;;;;;;4924094;29;20590;-73
2024/03/06 09:17:27;;;;;;;4.70;2.97;;;24.70;99.90;;;;;;4915910;29;20186;-73
2024/03/06 09:19:53;;;;;;;4.27;3.13;;;25.10;99.90;;;;;;4897954;29;20695;-73
2024/03/06 09:22:19;;;;;;;4.10;3.03;;;25.50;99.90;;;;;;4914518;29;20611;-73
2024/03/06 09:24:45;;;;;;;4.93;3.10;;;25.90;99.90;;;;;;4930446;29;20728;-74
2024/03/06 09:27:11;;;;;;;3.50;3.10;;;26.20;99.90;;;;;;4914532;29;20697;-73
2024/03/06 09:29:36;;;;;;;5.43;4.03;;;26.60;99.90;;;;;;4913971;29;20594;-73
2024/03/06 09:32:02;;;;;;;4.20;3.37;;;26.90;99.90;;;;;;4914198;29;20190;-73
2024/03/06 09:34:28;;;;;;;5.40;3.63;;;26.80;99.90;;;;;;4914560;29;20202;-73
2024/03/06 09:36:53;;;;;;;5.07;3.80;;;27.00;99.90;;;;;;4898371;29;20594;-73
2024/03/06 09:39:22;;;;;;;3.30;2.70;;;27.20;99.90;;;;;;4914983;29;20209;-73
2024/03/06 09:41:52;;;;;;;4.63;4.20;;;27.40;99.90;;;;;;4915322;29;20645;-72
2024/03/06 09:44:19;;;;;;;6.17;4.03;;;27.70;99.90;;;;;;4914007;29;20634;-73
2024/03/06 09:46:47;;;;;;;5.50;4.70;;;27.90;99.90;;;;;;4898069;29;21242;-73
2024/03/06 09:49:17;;;;;;;5.97;4.07;;;28.00;99.90;;;;;;4897896;29;20655;-73
2024/03/06 09:51:49;;;;;;;5.90;3.83;;;28.10;99.90;;;;;;4913781;29;20594;-73
2024/03/06 09:54:16;;;;;;;5.07;4.07;;;28.20;99.90;;;;;;4915158;29;20695;-72
2024/03/06 09:56:47;;;;;;;6.63;4.50;;;28.20;99.90;;;;;;4914751;29;20590;-73
2024/03/06 09:59:14;;;;;;;3.70;3.33;;;28.30;99.90;;;;;;4913315;29;20645;-73
2024/03/06 10:02:02;;;;;;;5.20;3.90;;;28.50;99.90;;;;;;4919013;29;21199;-73
2024/03/06 10:04:29;;;;;;;5.87;4.83;;;28.60;99.90;;;;;;4927444;29;20650;-74
2024/03/06 10:06:57;;;;;;;6.10;4.73;;;28.60;99.90;;;;;;4914894;29;20582;-73
2024/03/06 10:09:23;;;;;;;5.13;4.40;;;28.40;97.10;;;;;;4913468;29;20605;-73
2024/03/06 10:11:49;;;;;;;5.93;5.17;;;28.30;97.00;;;;;;4913438;29;20947;-73
2024/03/06 10:14:15;;;;;;;4.70;3.93;;;28.00;94.90;;;;;;4914564;29;20633;-73
2024/03/06 10:17:01;;;;;;;5.97;4.73;;;27.60;94.70;;;;;;4932454;29;20596;-73
2024/03/06 10:19:28;;;;;;;6.67;4.53;;;27.30;94.20;;;;;;4918026;29;20670;-73
2024/03/06 10:21:56;;;;;;;4.83;4.07;;;26.80;94.10;;;;;;4914493;29;20581;-74
2024/03/06 10:24:27;;;;;;;4.87;4.33;;;26.30;93.40;;;;;;4913648;29;20626;-74
2024/03/06 10:26:58;;;;;;;4.50;4.10;;;26.00;93.80;;;;;;4916109;29;20593;-73
2024/03/06 10:29:25;;;;;;;5.07;4.50;;;25.90;94.10;;;;;;4931618;29;20654;-73
2024/03/06 10:31:56;;;;;;;5.47;4.57;;;25.90;95.20;;;;;;4916258;29;20597;-75
2024/03/06 10:34:24;;;;;;;4.50;3.80;;;25.90;95.40;;;;;;4912172;29;21059;-74
2024/03/06 10:36:58;;;;;;;5.70;4.50;;;26.00;96.50;;;;;;4914154;29;20642;-74
2024/03/06 10:39:24;;;;;;;5.47;4.60;;;26.10;95.30;;;;;;4913881;29;20641;-74
2024/03/06 10:41:57;;;;;;;6.27;5.60;;;26.00;95.30;;;;;;4912883;29;20693;-75
2024/03/06 10:44:25;;;;;;;7.10;4.90;;;25.90;90.30;;;;;;4913139;29;20621;-75
2024/03/06 10:47:02;;;;;;;6.00;4.43;;;25.80;94.50;;;;;;4906382;29;20999;-74
2024/03/06 10:49:29;;;;;;;6.03;4.90;;;25.70;93.60;;;;;;4926867;29;20928;-74
2024/03/06 10:52:02;;;;;;;6.33;5.53;;;25.80;95.30;;;;;;4913967;29;20599;-74
2024/03/06 10:54:30;;;;;;;6.90;5.20;;;25.70;93.20;;;;;;4914223;29;20648;-76
2024/03/06 10:56:56;;;;;;;7.30;5.00;;;25.30;92.10;;;;;;4912961;29;20944;-76
2024/03/06 10:59:27;;;;;;;6.53;5.30;;;24.80;91.80;;;;;;4912580;29;20645;-76
2024/03/06 11:01:57;;;;;;;5.60;4.87;;;24.60;90.60;;;;;;4914917;29;20618;-76
2024/03/06 11:04:28;;;;;;;7.03;6.33;;;24.40;93.00;;;;;;4914159;29;20611;-76
2024/03/06 11:06:59;;;;;;;6.63;4.73;;;24.30;92.70;;;;;;4913868;29;20613;-76
2024/03/06 11:09:32;;;;;;;6.93;6.20;;;24.20;93.00;;;;;;4914978;29;20593;-77
2024/03/06 11:11:58;;;;;;;8.20;7.30;;;24.20;93.30;;;;;;4917609;29;21149;-75
2024/03/06 11:14:24;;;;;;;6.03;5.43;;;24.20;87.70;;;;;;4927377;29;20609;-78
2024/03/06 11:17:03;;;;;;;6.53;5.90;;;24.30;92.20;;;;;;4932150;29;20186;-77
2024/03/06 11:19:52;;;;;;;6.30;5.17;;;24.50;91.60;;;;;;4930701;29;20770;-77
2024/03/06 11:22:18;;;;;;;9.13;6.50;;;24.70;92.50;;;;;;4928857;29;20590;-76
2024/03/06 11:24:44;;;;;;;9.10;7.53;;;24.80;92.30;;;;;;4925115;29;21103;-77
2024/03/06 11:27:15;;;;;;;10.87;9.77;;;24.40;82.90;;;;;;4915974;29;20724;-76
2024/03/06 11:30:16;;;;;;;9.70;7.10;;;23.80;76.50;;;;;;4916112;29;20585;-75
2024/03/06 11:33:00;;;;;;;8.23;7.17;;;23.80;85.00;;;;;;4932564;29;20709;-76
2024/03/06 11:35:30;;;;;;;10.60;9.30;;;23.80;88.40;;;;;;4915376;29;20715;-76
2024/03/06 11:37:55;;;;;;;7.40;6.63;;;23.70;80.80;;;;;;4917351;29;20193;-77
2024/03/06 11:40:25;;;;;;;9.00;8.10;;;23.70;87.50;;;;;;4917722;29;20666;-76
2024/03/06 11:42:52;;;;;;;9.23;8.30;;;23.80;87.90;;;;;;4930741;29;20728;-75
2024/03/06 11:45:22;;;;;;;8.40;7.50;;;23.70;77.40;;;;;;4916827;29;20170;-76
2024/03/06 11:48:03;;;;;;;7.73;6.97;;;23.20;75.90;;;;;;4892374;29;20622;-76
2024/03/06 11:50:32;;;;;;;7.30;5.97;;;22.50;76.00;;;;;;4929305;29;20605;-76
2024/03/06 11:52:58;;;;;;;7.57;6.27;;;22.30;82.40;;;;;;4917113;29;20700;-76
2024/03/06 11:55:27;;;;;;;7.63;6.70;;;22.10;83.50;;;;;;4917514;29;20610;-76
2024/03/06 11:57:56;;;;;;;7.93;7.13;;;22.00;85.00;;;;;;4915606;29;20604;-75
2024/03/06 12:00:23;;;;;;;9.80;8.80;;;21.90;86.10;;;;;;4916041;29;20609;-76
2024/03/06 12:02:50;;;;;;;11.67;9.87;;;21.80;86.70;;;;;;4918040;29;20629;-76
2024/03/06 12:05:16;;;;;;;10.27;9.23;;;21.80;88.90;;;;;;4917265;29;20600;-76
2024/03/06 12:07:49;;;;;;;8.77;7.90;;;22.00;89.20;;;;;;4916762;29;20594;-76
2024/03/06 12:10:16;;;;;;;7.80;6.93;;;22.10;89.40;;;;;;4931056;29;21175;-78
2024/03/06 12:12:43;;;;;;;10.40;9.30;;;22.30;90.60;;;;;;4931075;29;20794;-76
2024/03/06 12:15:14;;;;;;;10.93;8.87;;;22.20;80.70;;;;;;4915816;29;20716;-76
2024/03/06 12:17:58;;;;;;;9.00;7.57;;;22.00;82.10;;;;;;4915494;29;21425;-76
2024/03/06 12:20:25;;;;;;;8.47;7.50;;;21.80;82.10;;;;;;4914885;29;20606;-76
2024/03/06 12:22:53;;;;;;;9.00;8.10;;;21.50;82.80;;;;;;4899862;29;20616;-75
2024/03/06 12:25:24;;;;;;;8.67;7.83;;;21.10;82.10;;;;;;4895912;29;20578;-76
2024/03/06 12:27:52;;;;;;;9.43;8.20;;;20.70;81.40;;;;;;4946794;29;20673;-76
2024/03/06 12:30:22;;;;;;;8.67;7.70;;;20.30;82.50;;;;;;4915037;29;20684;-75
2024/03/06 12:33:04;;;;;;;10.47;8.17;;;19.90;82.70;;;;;;4924613;29;20668;-75
2024/03/06 12:35:30;;;;;;;8.43;7.53;;;19.60;82.40;;;;;;4922163;29;20931;-75
2024/03/06 12:37:57;;;;;;;9.50;8.40;;;19.20;82.50;;;;;;4916083;29;20581;-75
2024/03/06 12:40:23;;;;;;;8.13;6.50;;;19.00;84.00;;;;;;4915924;29;20586;-75
2024/03/06 12:42:52;;;;;;;11.70;7.37;;;18.80;86.30;;;;;;4923754;29;20739;-75
2024/03/06 12:45:18;;;;;;;8.90;8.00;;;18.70;88.20;;;;;;4931709;29;20596;-75